sensor_id;sensor_type;location;lat;lon;timestamp;P1;durP1;ratioP1;P2;durP2;ratioP2
64282;SDS011;50497;50.720;-2.084;2023-04-12T00:00:44;13.60;;;3.05;;
64282;SDS011;50497;50.720;-2.084;2023-04-12T00:03:25;15.05;;;2.53;;
64282;SDS011;50497;50.720;-2.084;2023-04-12T00:05:54;12.25;;;3.03;;
64282;SDS011;50497;50.720;-2.084;2023-04-12T00:08:23;13.05;;;2.53;;
64282;SDS011;50497;50.720;-2.084;2023-04-12T00:10:57;14.48;;;2.38;;
64282;SDS011;50497;50.720;-2.084;2023-04-12T00:13:30;15.45;;;2.40;;
64282;SDS011;50497;50.720;-2.084;2023-04-12T00:16:00;18.45;;;2.97;;
64282;SDS011;50497;50.720;-2.084;2023-04-12T00:18:38;15.68;;;2.70;;
64282;SDS011;50497;50.720;-2.084;2023-04-12T00:21:13;18.20;;;2.80;;
64282;SDS011;50497;50.720;-2.084;2023-04-12T00:23:44;13.02;;;2.35;;
64282;SDS011;50497;50.720;-2.084;2023-04-12T00:26:15;14.27;;;2.30;;
64282;SDS011;50497;50.720;-2.084;2023-04-12T00:28:49;11.48;;;2.28;;
64282;SDS011;50497;50.720;-2.084;2023-04-12T00:31:20;15.88;;;2.42;;
64282;SDS011;50497;50.720;-2.084;2023-04-12T00:33:47;12.75;;;2.30;;
64282;SDS011;50497;50.720;-2.084;2023-04-12T00:36:12;12.88;;;2.60;;
64282;SDS011;50497;50.720;-2.084;2023-04-12T00:38:44;14.70;;;2.47;;
64282;SDS011;50497;50.720;-2.084;2023-04-12T00:41:16;13.23;;;2.25;;
64282;SDS011;50497;50.720;-2.084;2023-04-12T00:43:48;17.90;;;2.45;;
64282;SDS011;50497;50.720;-2.084;2023-04-12T00:46:28;16.73;;;2.75;;
64282;SDS011;50497;50.720;-2.084;2023-04-12T00:48:57;12.38;;;2.20;;
64282;SDS011;50497;50.720;-2.084;2023-04-12T00:51:27;11.05;;;2.38;;
64282;SDS011;50497;50.720;-2.084;2023-04-12T00:54:01;12.65;;;2.45;;
64282;SDS011;50497;50.720;-2.084;2023-04-12T00:56:35;13.63;;;2.40;;
64282;SDS011;50497;50.720;-2.084;2023-04-12T00:59:04;13.93;;;2.25;;
64282;SDS011;50497;50.720;-2.084;2023-04-12T01:01:36;13.23;;;2.45;;
64282;SDS011;50497;50.720;-2.084;2023-04-12T01:04:05;11.82;;;2.20;;
64282;SDS011;50497;50.720;-2.084;2023-04-12T01:07:23;13.45;;;2.53;;
64282;SDS011;50497;50.720;-2.084;2023-04-12T01:15:15;11.57;;;2.03;;
64282;SDS011;50497;50.720;-2.084;2023-04-12T01:17:55;13.07;;;2.00;;
64282;SDS011;50497;50.720;-2.084;2023-04-12T01:26:46;13.13;;;2.88;;
64282;SDS011;50497;50.720;-2.084;2023-04-12T01:29:18;11.50;;;1.90;;
64282;SDS011;50497;50.720;-2.084;2023-04-12T01:31:49;16.42;;;2.10;;
64282;SDS011;50497;50.720;-2.084;2023-04-12T01:34:25;10.43;;;1.98;;
64282;SDS011;50497;50.720;-2.084;2023-04-12T01:37:00;13.13;;;2.40;;
64282;SDS011;50497;50.720;-2.084;2023-04-12T01:39:32;11.93;;;2.65;;
64282;SDS011;50497;50.720;-2.084;2023-04-12T01:42:05;11.60;;;1.75;;
64282;SDS011;50497;50.720;-2.084;2023-04-12T01:44:39;6.40;;;1.45;;
64282;SDS011;50497;50.720;-2.084;2023-04-12T01:47:12;10.88;;;1.92;;
64282;SDS011;50497;50.720;-2.084;2023-04-12T01:50:02;11.80;;;2.00;;
64282;SDS011;50497;50.720;-2.084;2023-04-12T01:52:34;10.32;;;1.73;;
64282;SDS011;50497;50.720;-2.084;2023-04-12T01:55:09;11.27;;;1.85;;
64282;SDS011;50497;50.720;-2.084;2023-04-12T01:57:41;15.55;;;2.15;;
64282;SDS011;50497;50.720;-2.084;2023-04-12T02:00:13;11.73;;;2.30;;
64282;SDS011;50497;50.720;-2.084;2023-04-12T02:02:43;9.75;;;1.70;;
64282;SDS011;50497;50.720;-2.084;2023-04-12T02:05:12;8.68;;;1.55;;
64282;SDS011;50497;50.720;-2.084;2023-04-12T02:07:46;11.48;;;1.75;;
64282;SDS011;50497;50.720;-2.084;2023-04-12T02:10:15;11.88;;;2.10;;
64282;SDS011;50497;50.720;-2.084;2023-04-12T02:13:03;11.07;;;1.83;;
64282;SDS011;50497;50.720;-2.084;2023-04-12T02:15:36;11.43;;;1.60;;
64282;SDS011;50497;50.720;-2.084;2023-04-12T02:18:06;10.80;;;1.80;;
64282;SDS011;50497;50.720;-2.084;2023-04-12T02:20:41;9.70;;;1.80;;
64282;SDS011;50497;50.720;-2.084;2023-04-12T02:23:09;11.80;;;1.95;;
64282;SDS011;50497;50.720;-2.084;2023-04-12T02:25:42;8.90;;;1.65;;
64282;SDS011;50497;50.720;-2.084;2023-04-12T02:28:14;12.93;;;1.80;;
64282;SDS011;50497;50.720;-2.084;2023-04-12T02:30:43;8.35;;;1.83;;
64282;SDS011;50497;50.720;-2.084;2023-04-12T02:33:19;9.57;;;1.70;;
64282;SDS011;50497;50.720;-2.084;2023-04-12T02:35:55;13.35;;;2.13;;
64282;SDS011;50497;50.720;-2.084;2023-04-12T02:38:32;11.50;;;2.20;;
64282;SDS011;50497;50.720;-2.084;2023-04-12T02:41:04;7.95;;;1.75;;
64282;SDS011;50497;50.720;-2.084;2023-04-12T02:43:37;8.70;;;1.60;;
64282;SDS011;50497;50.720;-2.084;2023-04-12T02:46:17;12.02;;;1.88;;
64282;SDS011;50497;50.720;-2.084;2023-04-12T02:48:46;13.32;;;2.20;;
64282;SDS011;50497;50.720;-2.084;2023-04-12T02:51:16;8.18;;;1.58;;
64282;SDS011;50497;50.720;-2.084;2023-04-12T02:53:51;11.27;;;1.95;;
64282;SDS011;50497;50.720;-2.084;2023-04-12T02:56:21;9.98;;;1.95;;
64282;SDS011;50497;50.720;-2.084;2023-04-12T02:58:51;9.68;;;1.80;;
64282;SDS011;50497;50.720;-2.084;2023-04-12T03:01:16;11.57;;;1.85;;
64282;SDS011;50497;50.720;-2.084;2023-04-12T03:03:46;11.60;;;1.80;;
64282;SDS011;50497;50.720;-2.084;2023-04-12T03:06:23;7.72;;;1.70;;
64282;SDS011;50497;50.720;-2.084;2023-04-12T03:08:51;8.45;;;1.92;;
64282;SDS011;50497;50.720;-2.084;2023-04-12T03:11:21;11.23;;;1.83;;
64282;SDS011;50497;50.720;-2.084;2023-04-12T03:13:56;10.15;;;1.75;;
64282;SDS011;50497;50.720;-2.084;2023-04-12T03:16:26;11.82;;;1.98;;
64282;SDS011;50497;50.720;-2.084;2023-04-12T03:18:59;13.18;;;1.98;;
64282;SDS011;50497;50.720;-2.084;2023-04-12T03:21:33;11.77;;;1.85;;
64282;SDS011;50497;50.720;-2.084;2023-04-12T03:24:09;10.10;;;2.05;;
64282;SDS011;50497;50.720;-2.084;2023-04-12T03:26:41;9.80;;;1.88;;
64282;SDS011;50497;50.720;-2.084;2023-04-12T03:29:11;9.32;;;1.63;;
64282;SDS011;50497;50.720;-2.084;2023-04-12T03:31:44;9.02;;;1.60;;
64282;SDS011;50497;50.720;-2.084;2023-04-12T03:34:17;8.50;;;1.58;;
64282;SDS011;50497;50.720;-2.084;2023-04-12T03:36:55;6.82;;;1.40;;
64282;SDS011;50497;50.720;-2.084;2023-04-12T03:39:32;9.27;;;1.52;;
64282;SDS011;50497;50.720;-2.084;2023-04-12T03:42:02;10.73;;;1.70;;
64282;SDS011;50497;50.720;-2.084;2023-04-12T03:44:38;7.53;;;1.70;;
64282;SDS011;50497;50.720;-2.084;2023-04-12T03:47:08;10.02;;;1.77;;
64282;SDS011;50497;50.720;-2.084;2023-04-12T03:49:36;10.68;;;1.67;;
64282;SDS011;50497;50.720;-2.084;2023-04-12T03:52:10;8.38;;;1.30;;
64282;SDS011;50497;50.720;-2.084;2023-04-12T03:54:50;10.43;;;1.70;;
64282;SDS011;50497;50.720;-2.084;2023-04-12T03:57:21;8.45;;;1.65;;
64282;SDS011;50497;50.720;-2.084;2023-04-12T03:59:53;9.32;;;1.63;;
64282;SDS011;50497;50.720;-2.084;2023-04-12T04:02:26;9.63;;;1.67;;
64282;SDS011;50497;50.720;-2.084;2023-04-12T04:04:53;7.30;;;1.52;;
64282;SDS011;50497;50.720;-2.084;2023-04-12T04:07:18;11.43;;;1.50;;
64282;SDS011;50497;50.720;-2.084;2023-04-12T04:09:46;12.65;;;2.00;;
64282;SDS011;50497;50.720;-2.084;2023-04-12T04:12:12;9.13;;;1.73;;
64282;SDS011;50497;50.720;-2.084;2023-04-12T04:14:49;9.68;;;1.70;;
64282;SDS011;50497;50.720;-2.084;2023-04-12T04:17:17;10.48;;;1.65;;
64282;SDS011;50497;50.720;-2.084;2023-04-12T04:19:51;11.82;;;2.17;;
64282;SDS011;50497;50.720;-2.084;2023-04-12T04:22:20;8.18;;;1.50;;
64282;SDS011;50497;50.720;-2.084;2023-04-12T04:24:47;6.88;;;1.42;;
64282;SDS011;50497;50.720;-2.084;2023-04-12T04:27:16;10.48;;;1.90;;
64282;SDS011;50497;50.720;-2.084;2023-04-12T04:29:46;11.15;;;1.52;;
64282;SDS011;50497;50.720;-2.084;2023-04-12T04:32:29;10.55;;;2.05;;
64282;SDS011;50497;50.720;-2.084;2023-04-12T04:35:00;8.48;;;1.45;;
64282;SDS011;50497;50.720;-2.084;2023-04-12T04:37:37;6.28;;;1.52;;
64282;SDS011;50497;50.720;-2.084;2023-04-12T04:40:07;10.02;;;1.55;;
64282;SDS011;50497;50.720;-2.084;2023-04-12T04:42:41;12.43;;;2.00;;
64282;SDS011;50497;50.720;-2.084;2023-04-12T04:45:16;13.05;;;1.95;;
64282;SDS011;50497;50.720;-2.084;2023-04-12T04:47:46;10.48;;;1.88;;
64282;SDS011;50497;50.720;-2.084;2023-04-12T04:50:13;9.98;;;2.22;;
64282;SDS011;50497;50.720;-2.084;2023-04-12T04:52:39;10.40;;;1.83;;
64282;SDS011;50497;50.720;-2.084;2023-04-12T04:55:05;9.25;;;1.85;;
64282;SDS011;50497;50.720;-2.084;2023-04-12T04:57:32;7.55;;;1.55;;
64282;SDS011;50497;50.720;-2.084;2023-04-12T04:59:58;9.10;;;1.90;;
64282;SDS011;50497;50.720;-2.084;2023-04-12T05:02:24;7.68;;;1.52;;
64282;SDS011;50497;50.720;-2.084;2023-04-12T05:04:53;10.25;;;1.33;;
64282;SDS011;50497;50.720;-2.084;2023-04-12T05:07:20;7.40;;;1.50;;
64282;SDS011;50497;50.720;-2.084;2023-04-12T05:09:46;7.28;;;1.33;;
64282;SDS011;50497;50.720;-2.084;2023-04-12T05:12:11;8.45;;;1.52;;
64282;SDS011;50497;50.720;-2.084;2023-04-12T05:14:37;8.27;;;1.85;;
64282;SDS011;50497;50.720;-2.084;2023-04-12T05:17:07;5.78;;;1.45;;
64282;SDS011;50497;50.720;-2.084;2023-04-12T05:19:35;5.28;;;1.50;;
64282;SDS011;50497;50.720;-2.084;2023-04-12T05:22:04;9.82;;;1.58;;
64282;SDS011;50497;50.720;-2.084;2023-04-12T05:24:29;10.48;;;1.50;;
64282;SDS011;50497;50.720;-2.084;2023-04-12T05:27:01;9.85;;;1.75;;
64282;SDS011;50497;50.720;-2.084;2023-04-12T05:29:29;8.02;;;1.48;;
64282;SDS011;50497;50.720;-2.084;2023-04-12T05:32:00;7.50;;;1.40;;
64282;SDS011;50497;50.720;-2.084;2023-04-12T05:34:30;6.53;;;1.25;;
64282;SDS011;50497;50.720;-2.084;2023-04-12T05:37:05;6.82;;;1.98;;
64282;SDS011;50497;50.720;-2.084;2023-04-12T05:39:31;7.95;;;1.40;;
64282;SDS011;50497;50.720;-2.084;2023-04-12T05:42:03;6.47;;;1.17;;
64282;SDS011;50497;50.720;-2.084;2023-04-12T05:44:35;4.63;;;1.20;;
64282;SDS011;50497;50.720;-2.084;2023-04-12T05:47:04;9.13;;;1.65;;
64282;SDS011;50497;50.720;-2.084;2023-04-12T05:49:40;7.40;;;1.40;;
64282;SDS011;50497;50.720;-2.084;2023-04-12T05:52:08;7.78;;;1.25;;
64282;SDS011;50497;50.720;-2.084;2023-04-12T05:54:33;7.88;;;1.38;;
64282;SDS011;50497;50.720;-2.084;2023-04-12T05:56:59;11.88;;;1.50;;
64282;SDS011;50497;50.720;-2.084;2023-04-12T05:59:24;5.50;;;1.08;;
64282;SDS011;50497;50.720;-2.084;2023-04-12T06:01:53;8.38;;;1.30;;
64282;SDS011;50497;50.720;-2.084;2023-04-12T06:04:22;7.90;;;1.20;;
64282;SDS011;50497;50.720;-2.084;2023-04-12T06:06:51;7.65;;;1.83;;
64282;SDS011;50497;50.720;-2.084;2023-04-12T06:09:16;9.38;;;1.55;;
64282;SDS011;50497;50.720;-2.084;2023-04-12T06:11:45;7.55;;;1.50;;
64282;SDS011;50497;50.720;-2.084;2023-04-12T06:14:10;8.52;;;1.40;;
64282;SDS011;50497;50.720;-2.084;2023-04-12T06:16:36;7.03;;;1.40;;
64282;SDS011;50497;50.720;-2.084;2023-04-12T06:19:01;9.63;;;2.15;;
64282;SDS011;50497;50.720;-2.084;2023-04-12T06:21:30;10.65;;;2.17;;
64282;SDS011;50497;50.720;-2.084;2023-04-12T06:23:56;7.68;;;1.38;;
64282;SDS011;50497;50.720;-2.084;2023-04-12T06:26:24;11.00;;;1.60;;
64282;SDS011;50497;50.720;-2.084;2023-04-12T06:28:53;6.82;;;1.70;;
64282;SDS011;50497;50.720;-2.084;2023-04-12T06:31:18;10.75;;;1.73;;
64282;SDS011;50497;50.720;-2.084;2023-04-12T06:33:48;7.30;;;1.30;;
64282;SDS011;50497;50.720;-2.084;2023-04-12T06:36:14;7.75;;;1.33;;
64282;SDS011;50497;50.720;-2.084;2023-04-12T06:38:44;8.88;;;1.30;;
64282;SDS011;50497;50.720;-2.084;2023-04-12T06:41:10;8.40;;;1.35;;
64282;SDS011;50497;50.720;-2.084;2023-04-12T06:43:35;9.32;;;2.00;;
64282;SDS011;50497;50.720;-2.084;2023-04-12T06:46:01;6.80;;;1.42;;
64282;SDS011;50497;50.720;-2.084;2023-04-12T06:48:27;8.05;;;1.30;;
64282;SDS011;50497;50.720;-2.084;2023-04-12T06:50:56;20.63;;;10.15;;
64282;SDS011;50497;50.720;-2.084;2023-04-12T06:53:24;8.30;;;1.50;;
64282;SDS011;50497;50.720;-2.084;2023-04-12T06:55:49;7.53;;;1.20;;
64282;SDS011;50497;50.720;-2.084;2023-04-12T06:58:15;6.60;;;1.08;;
64282;SDS011;50497;50.720;-2.084;2023-04-12T07:00:40;5.55;;;1.13;;
64282;SDS011;50497;50.720;-2.084;2023-04-12T07:03:07;4.03;;;1.10;;
64282;SDS011;50497;50.720;-2.084;2023-04-12T07:05:36;4.03;;;0.90;;
64282;SDS011;50497;50.720;-2.084;2023-04-12T07:08:02;5.32;;;1.00;;
64282;SDS011;50497;50.720;-2.084;2023-04-12T07:10:27;6.80;;;1.10;;
64282;SDS011;50497;50.720;-2.084;2023-04-12T07:12:54;6.25;;;1.40;;
64282;SDS011;50497;50.720;-2.084;2023-04-12T07:15:22;5.30;;;1.30;;
64282;SDS011;50497;50.720;-2.084;2023-04-12T07:17:51;3.90;;;1.35;;
64282;SDS011;50497;50.720;-2.084;2023-04-12T07:20:16;6.88;;;1.30;;
64282;SDS011;50497;50.720;-2.084;2023-04-12T07:22:46;5.05;;;1.10;;
64282;SDS011;50497;50.720;-2.084;2023-04-12T07:25:15;3.85;;;1.10;;
64282;SDS011;50497;50.720;-2.084;2023-04-12T07:27:42;6.97;;;1.17;;
64282;SDS011;50497;50.720;-2.084;2023-04-12T07:32:38;6.80;;;1.40;;
64282;SDS011;50497;50.720;-2.084;2023-04-12T07:35:08;4.47;;;0.93;;
64282;SDS011;50497;50.720;-2.084;2023-04-12T07:37:39;6.75;;;1.33;;
64282;SDS011;50497;50.720;-2.084;2023-04-12T07:40:10;7.95;;;1.50;;
64282;SDS011;50497;50.720;-2.084;2023-04-12T07:42:37;7.38;;;1.30;;
64282;SDS011;50497;50.720;-2.084;2023-04-12T07:47:39;6.45;;;1.10;;
64282;SDS011;50497;50.720;-2.084;2023-04-12T07:50:10;6.43;;;1.23;;
64282;SDS011;50497;50.720;-2.084;2023-04-12T07:52:46;6.18;;;1.13;;
64282;SDS011;50497;50.720;-2.084;2023-04-12T07:55:11;5.70;;;1.30;;
64282;SDS011;50497;50.720;-2.084;2023-04-12T07:57:37;9.75;;;1.45;;
64282;SDS011;50497;50.720;-2.084;2023-04-12T08:00:10;5.18;;;1.30;;
64282;SDS011;50497;50.720;-2.084;2023-04-12T08:02:43;5.50;;;1.42;;
64282;SDS011;50497;50.720;-2.084;2023-04-12T08:05:12;7.15;;;1.50;;
64282;SDS011;50497;50.720;-2.084;2023-04-12T08:07:52;8.50;;;1.35;;
64282;SDS011;50497;50.720;-2.084;2023-04-12T08:10:18;5.40;;;1.17;;
64282;SDS011;50497;50.720;-2.084;2023-04-12T08:12:48;7.70;;;1.45;;
64282;SDS011;50497;50.720;-2.084;2023-04-12T08:15:15;7.57;;;1.42;;
64282;SDS011;50497;50.720;-2.084;2023-04-12T08:17:45;6.28;;;1.23;;
64282;SDS011;50497;50.720;-2.084;2023-04-12T08:20:18;6.00;;;1.33;;
64282;SDS011;50497;50.720;-2.084;2023-04-12T08:22:52;9.98;;;1.48;;
64282;SDS011;50497;50.720;-2.084;2023-04-12T08:25:18;9.50;;;1.67;;
64282;SDS011;50497;50.720;-2.084;2023-04-12T08:30:14;14.38;;;1.75;;
64282;SDS011;50497;50.720;-2.084;2023-04-12T08:32:43;10.60;;;1.80;;
64282;SDS011;50497;50.720;-2.084;2023-04-12T08:35:09;7.40;;;1.50;;
64282;SDS011;50497;50.720;-2.084;2023-04-12T08:37:39;6.38;;;1.35;;
64282;SDS011;50497;50.720;-2.084;2023-04-12T08:40:05;9.85;;;1.70;;
64282;SDS011;50497;50.720;-2.084;2023-04-12T08:42:36;7.97;;;1.63;;
64282;SDS011;50497;50.720;-2.084;2023-04-12T08:45:05;8.68;;;1.60;;
64282;SDS011;50497;50.720;-2.084;2023-04-12T08:47:40;5.97;;;1.33;;
64282;SDS011;50497;50.720;-2.084;2023-04-12T08:50:11;7.95;;;1.48;;
64282;SDS011;50497;50.720;-2.084;2023-04-12T08:52:41;7.25;;;1.70;;
64282;SDS011;50497;50.720;-2.084;2023-04-12T08:55:13;6.65;;;1.30;;
64282;SDS011;50497;50.720;-2.084;2023-04-12T08:57:45;7.07;;;1.30;;
64282;SDS011;50497;50.720;-2.084;2023-04-12T09:00:12;6.05;;;1.67;;
64282;SDS011;50497;50.720;-2.084;2023-04-12T09:02:46;6.60;;;1.23;;
64282;SDS011;50497;50.720;-2.084;2023-04-12T09:05:16;6.82;;;1.35;;
64282;SDS011;50497;50.720;-2.084;2023-04-12T09:07:48;6.13;;;1.42;;
64282;SDS011;50497;50.720;-2.084;2023-04-12T09:10:28;5.75;;;1.30;;
64282;SDS011;50497;50.720;-2.084;2023-04-12T09:13:05;25.45;;;1.77;;
64282;SDS011;50497;50.720;-2.084;2023-04-12T09:15:32;11.75;;;1.63;;
64282;SDS011;50497;50.720;-2.084;2023-04-12T09:18:02;10.30;;;1.60;;
64282;SDS011;50497;50.720;-2.084;2023-04-12T09:20:32;10.02;;;1.73;;
64282;SDS011;50497;50.720;-2.084;2023-04-12T09:23:21;8.65;;;1.38;;
64282;SDS011;50497;50.720;-2.084;2023-04-12T09:25:50;9.82;;;1.98;;
64282;SDS011;50497;50.720;-2.084;2023-04-12T09:28:29;13.60;;;1.60;;
64282;SDS011;50497;50.720;-2.084;2023-04-12T09:30:56;10.45;;;1.90;;
64282;SDS011;50497;50.720;-2.084;2023-04-12T09:33:35;9.60;;;1.95;;
64282;SDS011;50497;50.720;-2.084;2023-04-12T09:36:04;8.27;;;1.90;;
64282;SDS011;50497;50.720;-2.084;2023-04-12T09:38:33;9.00;;;1.88;;
64282;SDS011;50497;50.720;-2.084;2023-04-12T09:41:17;8.95;;;1.98;;
64282;SDS011;50497;50.720;-2.084;2023-04-12T09:43:54;12.63;;;2.28;;
64282;SDS011;50497;50.720;-2.084;2023-04-12T09:46:24;9.25;;;1.65;;
64282;SDS011;50497;50.720;-2.084;2023-04-12T09:48:54;12.10;;;2.30;;
64282;SDS011;50497;50.720;-2.084;2023-04-12T09:51:31;12.05;;;1.90;;
64282;SDS011;50497;50.720;-2.084;2023-04-12T09:54:02;9.63;;;2.08;;
64282;SDS011;50497;50.720;-2.084;2023-04-12T09:56:33;16.52;;;5.40;;
64282;SDS011;50497;50.720;-2.084;2023-04-12T09:59:04;10.95;;;2.05;;
64282;SDS011;50497;50.720;-2.084;2023-04-12T10:01:34;11.93;;;2.13;;
64282;SDS011;50497;50.720;-2.084;2023-04-12T10:04:06;11.52;;;2.03;;
64282;SDS011;50497;50.720;-2.084;2023-04-12T10:06:33;9.73;;;1.92;;
64282;SDS011;50497;50.720;-2.084;2023-04-12T10:09:00;15.38;;;2.30;;
64282;SDS011;50497;50.720;-2.084;2023-04-12T10:11:37;11.05;;;1.70;;
64282;SDS011;50497;50.720;-2.084;2023-04-12T10:14:06;8.60;;;2.00;;
64282;SDS011;50497;50.720;-2.084;2023-04-12T10:16:39;9.65;;;1.60;;
64282;SDS011;50497;50.720;-2.084;2023-04-12T10:19:13;8.07;;;1.60;;
64282;SDS011;50497;50.720;-2.084;2023-04-12T10:21:46;9.60;;;1.85;;
64282;SDS011;50497;50.720;-2.084;2023-04-12T10:24:20;7.57;;;1.60;;
64282;SDS011;50497;50.720;-2.084;2023-04-12T10:26:50;10.45;;;1.90;;
64282;SDS011;50497;50.720;-2.084;2023-04-12T10:29:27;8.13;;;1.70;;
64282;SDS011;50497;50.720;-2.084;2023-04-12T10:32:16;8.40;;;1.42;;
64282;SDS011;50497;50.720;-2.084;2023-04-12T10:34:55;8.00;;;2.00;;
64282;SDS011;50497;50.720;-2.084;2023-04-12T10:40:32;11.57;;;2.42;;
64282;SDS011;50497;50.720;-2.084;2023-04-12T10:45:51;11.88;;;2.05;;
64282;SDS011;50497;50.720;-2.084;2023-04-12T10:48:36;9.23;;;1.90;;
64282;SDS011;50497;50.720;-2.084;2023-04-12T10:53:52;14.45;;;2.25;;
64282;SDS011;50497;50.720;-2.084;2023-04-12T10:56:40;13.65;;;3.00;;
64282;SDS011;50497;50.720;-2.084;2023-04-12T10:59:12;13.27;;;2.60;;
64282;SDS011;50497;50.720;-2.084;2023-04-12T11:05:01;13.73;;;2.53;;
64282;SDS011;50497;50.720;-2.084;2023-04-12T11:07:41;9.48;;;2.25;;
64282;SDS011;50497;50.720;-2.084;2023-04-12T11:10:14;10.32;;;2.15;;
64282;SDS011;50497;50.720;-2.084;2023-04-12T11:13:04;13.30;;;2.90;;
64282;SDS011;50497;50.720;-2.084;2023-04-12T11:15:31;14.07;;;2.30;;
64282;SDS011;50497;50.720;-2.084;2023-04-12T11:18:11;16.55;;;2.20;;
64282;SDS011;50497;50.720;-2.084;2023-04-12T11:20:44;14.60;;;2.42;;
64282;SDS011;50497;50.720;-2.084;2023-04-12T11:23:16;8.98;;;2.30;;
64282;SDS011;50497;50.720;-2.084;2023-04-12T11:25:52;11.95;;;2.63;;
64282;SDS011;50497;50.720;-2.084;2023-04-12T11:28:25;13.82;;;2.85;;
64282;SDS011;50497;50.720;-2.084;2023-04-12T11:30:57;17.15;;;2.67;;
64282;SDS011;50497;50.720;-2.084;2023-04-12T11:33:56;17.58;;;2.78;;
64282;SDS011;50497;50.720;-2.084;2023-04-12T11:36:25;17.45;;;2.80;;
64282;SDS011;50497;50.720;-2.084;2023-04-12T11:39:02;13.07;;;2.83;;
64282;SDS011;50497;50.720;-2.084;2023-04-12T11:41:30;17.73;;;3.25;;
64282;SDS011;50497;50.720;-2.084;2023-04-12T11:44:00;17.88;;;2.80;;
64282;SDS011;50497;50.720;-2.084;2023-04-12T11:46:34;13.77;;;3.00;;
64282;SDS011;50497;50.720;-2.084;2023-04-12T11:49:00;14.45;;;2.67;;
64282;SDS011;50497;50.720;-2.084;2023-04-12T11:51:27;11.95;;;2.42;;
64282;SDS011;50497;50.720;-2.084;2023-04-12T11:53:54;12.05;;;2.60;;
64282;SDS011;50497;50.720;-2.084;2023-04-12T11:56:23;7.80;;;2.00;;
64282;SDS011;50497;50.720;-2.084;2023-04-12T11:58:55;7.95;;;2.17;;
64282;SDS011;50497;50.720;-2.084;2023-04-12T12:01:30;10.70;;;2.00;;
64282;SDS011;50497;50.720;-2.084;2023-04-12T12:04:04;7.55;;;2.15;;
64282;SDS011;50497;50.720;-2.084;2023-04-12T12:06:34;7.35;;;1.60;;
64282;SDS011;50497;50.720;-2.084;2023-04-12T12:09:08;6.97;;;1.40;;
64282;SDS011;50497;50.720;-2.084;2023-04-12T12:11:42;10.13;;;1.85;;
64282;SDS011;50497;50.720;-2.084;2023-04-12T12:14:10;10.38;;;2.22;;
64282;SDS011;50497;50.720;-2.084;2023-04-12T12:16:39;13.00;;;3.65;;
64282;SDS011;50497;50.720;-2.084;2023-04-12T12:19:06;13.75;;;2.30;;
64282;SDS011;50497;50.720;-2.084;2023-04-12T12:21:35;14.45;;;2.78;;
64282;SDS011;50497;50.720;-2.084;2023-04-12T12:24:04;11.85;;;1.85;;
64282;SDS011;50497;50.720;-2.084;2023-04-12T12:26:35;12.25;;;2.22;;
64282;SDS011;50497;50.720;-2.084;2023-04-12T12:29:15;13.20;;;1.95;;
64282;SDS011;50497;50.720;-2.084;2023-04-12T12:31:50;10.45;;;2.33;;
64282;SDS011;50497;50.720;-2.084;2023-04-12T12:34:20;10.45;;;1.95;;
64282;SDS011;50497;50.720;-2.084;2023-04-12T12:36:56;19.65;;;2.28;;
64282;SDS011;50497;50.720;-2.084;2023-04-12T12:39:24;8.45;;;1.27;;
64282;SDS011;50497;50.720;-2.084;2023-04-12T12:42:00;7.78;;;1.38;;
64282;SDS011;50497;50.720;-2.084;2023-04-12T12:44:29;10.77;;;1.83;;
64282;SDS011;50497;50.720;-2.084;2023-04-12T12:47:01;7.68;;;1.40;;
64282;SDS011;50497;50.720;-2.084;2023-04-12T12:49:34;7.55;;;1.30;;
64282;SDS011;50497;50.720;-2.084;2023-04-12T12:52:00;6.55;;;1.30;;
64282;SDS011;50497;50.720;-2.084;2023-04-12T12:54:36;9.60;;;1.40;;
64282;SDS011;50497;50.720;-2.084;2023-04-12T12:57:05;6.68;;;1.40;;
64282;SDS011;50497;50.720;-2.084;2023-04-12T12:59:32;4.75;;;1.20;;
64282;SDS011;50497;50.720;-2.084;2023-04-12T13:01:59;8.18;;;1.40;;
64282;SDS011;50497;50.720;-2.084;2023-04-12T13:04:28;8.38;;;1.15;;
64282;SDS011;50497;50.720;-2.084;2023-04-12T13:06:55;9.02;;;1.58;;
64282;SDS011;50497;50.720;-2.084;2023-04-12T13:09:31;5.03;;;1.08;;
64282;SDS011;50497;50.720;-2.084;2023-04-12T13:11:59;5.45;;;1.52;;
64282;SDS011;50497;50.720;-2.084;2023-04-12T13:14:28;10.02;;;1.88;;
64282;SDS011;50497;50.720;-2.084;2023-04-12T13:16:56;5.93;;;1.58;;
64282;SDS011;50497;50.720;-2.084;2023-04-12T13:19:30;9.73;;;1.40;;
64282;SDS011;50497;50.720;-2.084;2023-04-12T13:22:04;9.68;;;1.80;;
64282;SDS011;50497;50.720;-2.084;2023-04-12T13:24:34;8.73;;;1.40;;
64282;SDS011;50497;50.720;-2.084;2023-04-12T13:27:03;8.45;;;1.60;;
64282;SDS011;50497;50.720;-2.084;2023-04-12T13:29:30;9.48;;;1.50;;
64282;SDS011;50497;50.720;-2.084;2023-04-12T13:32:02;9.60;;;1.60;;
64282;SDS011;50497;50.720;-2.084;2023-04-12T13:34:39;13.02;;;2.20;;
64282;SDS011;50497;50.720;-2.084;2023-04-12T13:37:07;9.93;;;2.00;;
64282;SDS011;50497;50.720;-2.084;2023-04-12T13:39:37;14.45;;;2.28;;
64282;SDS011;50497;50.720;-2.084;2023-04-12T13:42:07;12.88;;;1.88;;
64282;SDS011;50497;50.720;-2.084;2023-04-12T13:44:47;8.55;;;1.85;;
64282;SDS011;50497;50.720;-2.084;2023-04-12T13:47:17;7.72;;;1.90;;
64282;SDS011;50497;50.720;-2.084;2023-04-12T13:49:49;6.05;;;1.48;;
64282;SDS011;50497;50.720;-2.084;2023-04-12T13:52:22;5.90;;;1.30;;
64282;SDS011;50497;50.720;-2.084;2023-04-12T13:54:50;3.78;;;0.90;;
64282;SDS011;50497;50.720;-2.084;2023-04-12T13:57:23;3.38;;;0.88;;
64282;SDS011;50497;50.720;-2.084;2023-04-12T13:59:50;4.40;;;1.00;;
64282;SDS011;50497;50.720;-2.084;2023-04-12T14:02:22;3.58;;;0.90;;
64282;SDS011;50497;50.720;-2.084;2023-04-12T14:04:56;2.00;;;0.80;;
64282;SDS011;50497;50.720;-2.084;2023-04-12T14:07:24;3.20;;;0.95;;
64282;SDS011;50497;50.720;-2.084;2023-04-12T14:09:55;5.00;;;0.77;;
64282;SDS011;50497;50.720;-2.084;2023-04-12T14:12:26;3.35;;;0.85;;
64282;SDS011;50497;50.720;-2.084;2023-04-12T14:14:55;2.75;;;0.65;;
64282;SDS011;50497;50.720;-2.084;2023-04-12T14:17:24;4.68;;;1.00;;
64282;SDS011;50497;50.720;-2.084;2023-04-12T14:19:56;3.38;;;1.00;;
64282;SDS011;50497;50.720;-2.084;2023-04-12T14:22:28;3.92;;;1.23;;
64282;SDS011;50497;50.720;-2.084;2023-04-12T14:24:57;2.20;;;0.85;;
64282;SDS011;50497;50.720;-2.084;2023-04-12T14:27:33;3.67;;;0.80;;
64282;SDS011;50497;50.720;-2.084;2023-04-12T14:30:03;4.32;;;1.27;;
64282;SDS011;50497;50.720;-2.084;2023-04-12T14:32:35;6.40;;;1.08;;
64282;SDS011;50497;50.720;-2.084;2023-04-12T14:35:05;4.00;;;0.77;;
64282;SDS011;50497;50.720;-2.084;2023-04-12T14:37:34;3.28;;;0.88;;
64282;SDS011;50497;50.720;-2.084;2023-04-12T14:40:03;5.07;;;1.02;;
64282;SDS011;50497;50.720;-2.084;2023-04-12T14:42:34;4.93;;;1.00;;
64282;SDS011;50497;50.720;-2.084;2023-04-12T14:45:03;5.22;;;1.40;;
64282;SDS011;50497;50.720;-2.084;2023-04-12T14:47:38;9.32;;;2.13;;
64282;SDS011;50497;50.720;-2.084;2023-04-12T14:52:34;11.50;;;1.50;;
64282;SDS011;50497;50.720;-2.084;2023-04-12T14:55:01;7.35;;;1.75;;
64282;SDS011;50497;50.720;-2.084;2023-04-12T14:57:29;7.40;;;1.95;;
64282;SDS011;50497;50.720;-2.084;2023-04-12T15:00:01;11.30;;;2.10;;
64282;SDS011;50497;50.720;-2.084;2023-04-12T15:02:27;12.13;;;2.08;;
64282;SDS011;50497;50.720;-2.084;2023-04-12T15:04:58;12.32;;;2.22;;
64282;SDS011;50497;50.720;-2.084;2023-04-12T15:07:31;9.45;;;1.80;;
64282;SDS011;50497;50.720;-2.084;2023-04-12T15:10:06;7.57;;;1.73;;
64282;SDS011;50497;50.720;-2.084;2023-04-12T15:12:39;11.27;;;1.95;;
64282;SDS011;50497;50.720;-2.084;2023-04-12T15:15:09;12.30;;;1.80;;
64282;SDS011;50497;50.720;-2.084;2023-04-12T15:17:47;10.60;;;2.17;;
64282;SDS011;50497;50.720;-2.084;2023-04-12T15:20:24;9.95;;;1.77;;
64282;SDS011;50497;50.720;-2.084;2023-04-12T15:22:53;8.75;;;1.80;;
64282;SDS011;50497;50.720;-2.084;2023-04-12T15:25:22;7.22;;;1.55;;